Opa Locka, FL

10:20 AM EDT on September 02, 2014 (GMT -0400)
Opa Locka | Change Station
CLOSE
Current Station
Airport
Location: Opa Locka,
Elevation: 10 ft
Nearby Weather Stations

Elev 10 ft 25.91 °N, 80.28 °W | Updated 15 minutes ago

Clear
Clear
84 °F
Feels Like 88 °F
N
6
Wind Variable Wind from SE

Today
High -- | Low -- °F
--% Chance of Precip.
Yesterday
High -- | Low -- °F
Precip. -- in
7:01 AM 7:39 PM
First Quarter, 52% visible
Pressure 30.07 in
Visibility 10.0 miles
Clouds Clear
Heat Index 88 °F
Dew Point 70 °F
Humidity 63%
Rainfall 0.33 in
Snow Depth Not available.
UV 6 out of 12
Pollen 4.20 out of 12
PM2.5 Good
Flu Activity Not available.
SPECI KOPF 021405Z 13005KT 10SM CLR 29/21 A3007 RMK AO2 WSHFT 1345 T02890211

More Conditions Fewer Conditions

Pressure 30.07 in
Visibility 10.0 miles
Clouds Clear
Heat Index 88 °F
Dew Point 70 °F
Humidity 63%
Rainfall 0.33 in
Snow Depth Not available.
UV 6 out of 12
Pollen 4.20 out of 12
PM2.5 Good
Flu Activity Not available.
SPECI KOPF 021405Z 13005KT 10SM CLR 29/21 A3007 RMK AO2 WSHFT 1345 T02890211

More Conditions Fewer Conditions

Nowcast | as of 10:08 am EDT on September 2, 2014

Widely dispersed showers will continue to move westward across the Atlantic waters. These showers will produce brief downpours and gusty winds to near 25 knots. Showers will also affect the Atlantic coast Metro areas from time to time.

×

10-Day Weather Forecast

Almanac

Astronomy

Sep. 02, 2014 Rise Set
Actual Time 7:01 AM EDT 7:39 PM EDT
Civil Twilight 6:38 AM EDT 8:02 PM EDT
Nautical Twilight 6:10 AM EDT 8:30 PM EDT
Astronomical Twilight 5:42 AM EDT 8:57 PM EDT
Moon 2:03 PM EDT 12:19 AM EDT
Length of Visible Light 13h 24m
Length of Day
12h 37m
Tomorrow will be 1m 28s shorter.
First Quarter, 52% of the Moon is Illuminated
Today
First Quarter
Sep 8
Full
Sep 15
Last Quarter
Sep 24
New
Oct 1
First Quarter

Today's Extremes

State Highs State Lows

Community

WunderPhotos

Upload Photos

1,749,677 photos uploaded!

WunderBlogs® & News

Nearby

Air Quality

  Air Quality AQ Index Pollutant
Yesterday Good
PM2.5
Yesterday Good
OZONE
Current Good
PM2.5
Tuesday Moderate
PM2.5
Tuesday Good
OZONE

Snow Depth

Station Depth Elevation
No new snow has been reported.

Earthquake Activity

City Distance Mag. Time & Date
No recent earthquake activity has been reported nearby.
Minimum magnitude displayed is 2.5.

Coastal Water Temperatures

Place Temperature
Virginia Key, FL 87.1 °F

Nearby Weather Stations